createdAt,value
2023-02-19T00:01:19.908Z,97201.81
2023-02-19T00:03:46.223Z,97206.19
2023-02-19T00:06:12.547Z,97211.38
2023-02-19T00:08:38.846Z,97217.88
2023-02-19T00:11:05.116Z,97213.50
2023-02-19T00:13:31.421Z,97207.34
2023-02-19T00:15:57.763Z,97203.91
2023-02-19T00:18:24.075Z,97211.19
2023-02-19T00:20:50.385Z,97202.03
2023-02-19T00:23:16.680Z,97208.34
2023-02-19T00:25:42.968Z,97204.78
2023-02-19T00:28:09.273Z,97192.03
2023-02-19T00:30:35.567Z,97194.91
2023-02-19T00:33:01.855Z,97190.81
2023-02-19T00:35:28.167Z,97186.88
2023-02-19T00:37:54.447Z,97192.47
2023-02-19T00:40:20.735Z,97194.44
2023-02-19T00:42:47.035Z,97191.50
2023-02-19T00:45:13.324Z,97197.56
2023-02-19T00:47:39.597Z,97194.00
2023-02-19T00:50:05.880Z,97182.78
2023-02-19T00:52:32.161Z,97186.03
2023-02-19T00:54:58.446Z,97184.06
2023-02-19T00:57:24.747Z,97186.88
2023-02-19T00:59:51.019Z,97186.97
2023-02-19T01:02:17.290Z,97184.63
2023-02-19T01:04:43.661Z,97182.63
2023-02-19T01:07:10.181Z,97183.34
2023-02-19T01:09:36.463Z,97191.78
2023-02-19T01:12:02.752Z,97184.69
2023-02-19T01:14:29.033Z,97181.41
2023-02-19T01:16:55.319Z,97173.53
2023-02-19T01:19:21.609Z,97171.84
2023-02-19T01:21:47.892Z,97177.41
2023-02-19T01:24:14.181Z,97177.06
2023-02-19T01:26:40.489Z,97173.47
2023-02-19T01:29:06.757Z,97163.22
2023-02-19T01:31:33.100Z,97165.22
2023-02-19T01:33:59.452Z,97179.91
2023-02-19T01:36:25.737Z,97174.41
2023-02-19T01:38:52.154Z,97180.66
2023-02-19T01:41:18.446Z,97171.44
2023-02-19T01:43:44.733Z,97167.09
2023-02-19T01:46:11.087Z,97165.63
2023-02-19T01:48:37.421Z,97156.00
2023-02-19T01:51:03.707Z,97145.56
2023-02-19T01:53:29.985Z,97147.66
2023-02-19T01:55:56.288Z,97147.41
2023-02-19T01:58:22.682Z,97138.50
2023-02-19T02:00:49.031Z,97132.88
2023-02-19T02:03:15.356Z,97136.69
2023-02-19T02:05:41.647Z,97137.00
2023-02-19T02:08:07.939Z,97133.66
2023-02-19T02:10:34.282Z,97141.66
2023-02-19T02:13:00.569Z,97139.50
2023-02-19T02:15:26.847Z,97135.28
2023-02-19T02:17:53.137Z,97133.09
2023-02-19T02:20:19.419Z,97131.50
2023-02-19T02:22:45.699Z,97121.66
2023-02-19T02:25:12.025Z,97131.41
2023-02-19T02:27:38.440Z,97133.06
2023-02-19T02:30:04.747Z,97128.69
2023-02-19T02:32:31.078Z,97120.56
2023-02-19T02:34:57.378Z,97117.69
2023-02-19T02:37:23.656Z,97127.94
2023-02-19T02:39:49.939Z,97127.41
2023-02-19T02:42:16.224Z,97136.25
2023-02-19T02:44:42.510Z,97124.78
2023-02-19T02:47:08.813Z,97127.97
2023-02-19T02:49:35.109Z,97116.50
2023-02-19T02:52:01.388Z,97120.06
2023-02-19T02:54:27.698Z,97110.09
2023-02-19T02:56:53.992Z,97102.25
2023-02-19T02:59:20.274Z,97105.50
2023-02-19T03:01:46.578Z,97097.91
2023-02-19T03:04:12.848Z,97098.25
2023-02-19T03:06:39.121Z,97093.06
2023-02-19T03:09:05.428Z,97096.66
2023-02-19T03:11:33.322Z,97089.00
2023-02-19T03:13:59.596Z,97087.13
2023-02-19T03:16:25.958Z,97096.56
2023-02-19T03:18:52.258Z,97080.25
2023-02-19T03:21:18.537Z,97078.66
2023-02-19T03:23:44.851Z,97085.19
2023-02-19T03:26:11.140Z,97085.53
2023-02-19T03:28:37.432Z,97098.78
2023-02-19T03:31:03.725Z,97109.81
2023-02-19T03:33:30.021Z,97113.75
2023-02-19T03:35:56.298Z,97122.78
2023-02-19T03:38:22.601Z,97124.44
2023-02-19T03:40:48.884Z,97128.09
2023-02-19T03:43:16.335Z,97117.00
2023-02-19T03:45:42.639Z,97113.84
2023-02-19T03:48:08.917Z,97111.94
2023-02-19T03:50:35.203Z,97114.75
2023-02-19T03:53:01.502Z,97124.34
2023-02-19T03:55:27.778Z,97130.66
2023-02-19T03:57:54.076Z,97136.53
2023-02-19T04:00:20.367Z,97144.97
2023-02-19T04:02:46.638Z,97134.56
2023-02-19T04:05:14.197Z,97134.13
2023-02-19T04:07:40.581Z,97136.91
2023-02-19T04:10:06.863Z,97152.03
2023-02-19T04:12:33.152Z,97156.84
2023-02-19T04:15:02.211Z,97146.84
2023-02-19T04:17:28.506Z,97155.22
2023-02-19T04:19:54.784Z,97171.91
2023-02-19T04:22:21.119Z,97173.81
2023-02-19T04:24:47.410Z,97177.81
2023-02-19T04:27:13.686Z,97171.00
2023-02-19T04:29:39.971Z,97158.75
2023-02-19T04:32:06.262Z,97149.19
2023-02-19T04:34:32.570Z,97123.31
2023-02-19T04:36:58.895Z,97125.31
2023-02-19T04:39:25.173Z,97120.53
2023-02-19T04:41:51.451Z,97111.03
2023-02-19T04:44:17.785Z,97088.44
2023-02-19T04:46:44.092Z,97083.72
2023-02-19T04:49:10.375Z,97067.00
2023-02-19T04:51:36.664Z,97051.59
2023-02-19T04:54:02.945Z,97038.41
2023-02-19T04:56:29.223Z,97043.50
2023-02-19T04:58:55.642Z,97034.63
2023-02-19T05:01:21.960Z,97051.84
2023-02-19T05:03:51.096Z,97061.34
2023-02-19T05:06:17.393Z,97068.03
2023-02-19T05:08:43.668Z,97072.34
2023-02-19T05:11:10.203Z,97072.31
2023-02-19T05:13:36.711Z,97084.19
2023-02-19T05:16:03.094Z,97100.06
2023-02-19T05:18:29.398Z,97095.84
2023-02-19T05:20:55.700Z,97081.94
2023-02-19T05:23:21.977Z,97082.34
2023-02-19T05:25:48.258Z,97077.13
2023-02-19T05:28:14.603Z,97077.16
2023-02-19T05:30:40.901Z,97097.09
2023-02-19T05:33:07.200Z,97111.75
2023-02-19T05:35:33.499Z,97100.88
2023-02-19T05:37:59.776Z,97105.59
2023-02-19T05:40:26.071Z,97097.09
2023-02-19T05:42:52.374Z,97107.09
2023-02-19T05:45:18.664Z,97121.91
2023-02-19T05:47:44.949Z,97122.13
2023-02-19T05:50:11.252Z,97115.47
2023-02-19T05:52:37.530Z,97120.28
2023-02-19T05:55:03.825Z,97118.94
2023-02-19T05:57:30.139Z,97118.88
2023-02-19T05:59:56.562Z,97121.31
2023-02-19T06:02:24.983Z,97115.72
2023-02-19T06:04:51.312Z,97117.06
2023-02-19T06:07:17.590Z,97120.59
2023-02-19T06:09:43.867Z,97123.44
2023-02-19T06:12:10.171Z,97120.59
2023-02-19T06:14:36.448Z,97122.94
2023-02-19T06:17:02.737Z,97128.47
2023-02-19T06:19:29.077Z,97124.34
2023-02-19T06:21:55.403Z,97133.03
2023-02-19T06:24:21.682Z,97119.97
2023-02-19T06:26:47.992Z,97117.06
2023-02-19T06:29:14.280Z,97126.56
2023-02-19T06:31:40.632Z,97129.41
2023-02-19T06:34:07.056Z,97121.78
2023-02-19T06:36:33.361Z,97126.63
2023-02-19T06:38:59.639Z,97145.00
2023-02-19T06:41:25.925Z,97154.25
2023-02-19T06:43:52.196Z,97159.81
2023-02-19T06:46:18.528Z,97168.28
2023-02-19T06:48:44.864Z,97171.34
2023-02-19T06:51:11.337Z,97169.69
2023-02-19T06:53:37.806Z,97175.16
2023-02-19T06:56:04.134Z,97168.38
2023-02-19T06:58:30.437Z,97179.50
2023-02-19T07:00:56.808Z,97185.03
2023-02-19T07:03:23.132Z,97179.69
2023-02-19T07:05:49.410Z,97185.69
2023-02-19T07:08:15.716Z,97193.59
2023-02-19T07:10:42.011Z,97200.34
2023-02-19T07:13:08.294Z,97199.59
2023-02-19T07:15:34.576Z,97204.13
2023-02-19T07:18:00.879Z,97217.50
2023-02-19T07:20:27.163Z,97223.16
2023-02-19T07:22:53.457Z,97213.28
2023-02-19T07:25:19.871Z,97221.09
2023-02-19T07:27:46.148Z,97248.22
2023-02-19T07:30:12.453Z,97252.66
2023-02-19T07:32:38.782Z,97262.63
2023-02-19T07:35:05.058Z,97272.69
2023-02-19T07:37:31.340Z,97257.88
2023-02-19T07:39:58.098Z,97260.50
2023-02-19T07:42:24.384Z,97249.25
2023-02-19T07:44:50.674Z,97227.09
2023-02-19T07:47:16.964Z,97249.25
2023-02-19T07:49:43.234Z,97253.34
2023-02-19T07:52:09.513Z,97249.16
2023-02-19T07:54:35.807Z,97253.22
2023-02-19T07:57:02.097Z,97260.16
2023-02-19T07:59:28.384Z,97265.19
2023-02-19T08:01:54.693Z,97256.13
2023-02-19T08:04:20.982Z,97265.66
2023-02-19T08:06:47.273Z,97253.31
2023-02-19T08:09:13.584Z,97262.06
2023-02-19T08:11:39.863Z,97265.72
2023-02-19T08:14:06.135Z,97259.75
2023-02-19T08:16:42.462Z,97263.91
2023-02-19T08:19:09.096Z,97266.97
2023-02-19T08:21:35.410Z,97275.47
2023-02-19T08:24:01.696Z,97273.47
2023-02-19T08:26:30.980Z,97274.25
2023-02-19T08:28:57.296Z,97275.41
2023-02-19T08:31:24.313Z,97268.84
2023-02-19T08:33:51.004Z,97266.19
2023-02-19T08:36:17.316Z,97278.25
2023-02-19T08:38:43.608Z,97277.13
2023-02-19T08:41:10.284Z,97285.19
2023-02-19T08:43:36.800Z,97291.66
2023-02-19T08:46:03.106Z,97290.44
2023-02-19T08:48:29.408Z,97293.44
2023-02-19T08:50:55.735Z,97290.22
2023-02-19T08:53:22.012Z,97278.06
2023-02-19T08:55:48.293Z,97267.72
2023-02-19T08:58:14.591Z,97271.66
2023-02-19T09:00:40.879Z,97273.91
2023-02-19T09:03:07.151Z,97276.78
2023-02-19T09:05:33.443Z,97289.75
2023-02-19T09:07:59.707Z,97278.22
2023-02-19T09:10:25.984Z,97271.13
2023-02-19T09:12:52.257Z,97276.91
2023-02-19T09:15:18.560Z,97284.00
2023-02-19T09:17:44.832Z,97272.88
2023-02-19T09:20:11.129Z,97282.06
2023-02-19T09:22:37.410Z,97272.91
2023-02-19T09:25:03.707Z,97265.25
2023-02-19T09:27:30.018Z,97263.09
2023-02-19T09:29:56.296Z,97275.72
2023-02-19T09:32:22.579Z,97285.94
2023-02-19T09:34:48.879Z,97283.91
2023-02-19T09:37:15.163Z,97287.78
2023-02-19T09:39:41.435Z,97293.03
2023-02-19T09:42:07.732Z,97292.84
2023-02-19T09:44:34.014Z,97292.84
2023-02-19T09:47:00.284Z,97304.34
2023-02-19T09:49:26.650Z,97297.78
2023-02-19T09:51:52.919Z,97306.56
2023-02-19T09:54:19.210Z,97304.66
2023-02-19T09:56:45.501Z,97297.97
2023-02-19T09:59:12.013Z,97295.31
2023-02-19T10:01:38.319Z,97300.84
2023-02-19T10:04:04.645Z,97286.44
2023-02-19T10:06:30.938Z,97299.22
2023-02-19T10:08:57.221Z,97297.03
2023-02-19T10:11:23.502Z,97301.50
2023-02-19T10:13:49.790Z,97303.31
2023-02-19T10:16:16.126Z,97307.81
2023-02-19T10:18:42.480Z,97302.41
2023-02-19T10:21:09.042Z,97304.09
2023-02-19T10:23:35.535Z,97298.53
2023-02-19T10:26:01.833Z,97281.19
2023-02-19T10:28:28.144Z,97290.75
2023-02-19T10:30:54.467Z,97295.97
2023-02-19T10:33:20.775Z,97289.03
2023-02-19T10:35:47.054Z,97292.00
2023-02-19T10:38:13.331Z,97294.81
2023-02-19T10:40:39.624Z,97289.22
2023-02-19T10:43:05.902Z,97291.97
2023-02-19T10:45:32.190Z,97295.25
2023-02-19T10:47:58.479Z,97283.44
2023-02-19T10:50:24.777Z,97287.84
2023-02-19T10:52:51.068Z,97290.09
2023-02-19T10:55:19.435Z,97290.50
2023-02-19T10:57:45.710Z,97287.75
2023-02-19T11:00:12.011Z,97292.00
2023-02-19T11:02:38.323Z,97295.19
2023-02-19T11:05:04.611Z,97284.41
2023-02-19T11:07:30.914Z,97283.88
2023-02-19T11:09:57.200Z,97287.84
2023-02-19T11:12:23.473Z,97278.97
2023-02-19T11:14:49.740Z,97275.50
2023-02-19T11:17:16.172Z,97275.53
2023-02-19T11:19:42.470Z,97277.22
2023-02-19T11:22:08.773Z,97275.44
2023-02-19T11:24:35.168Z,97265.81
2023-02-19T11:27:01.482Z,97263.13
2023-02-19T11:29:27.771Z,97259.22
2023-02-19T11:31:54.139Z,97258.38
2023-02-19T11:34:20.601Z,97255.81
2023-02-19T11:36:46.889Z,97256.81
2023-02-19T11:39:13.187Z,97249.06
2023-02-19T11:41:39.482Z,97242.34
2023-02-19T11:44:05.760Z,97248.25
2023-02-19T11:46:32.091Z,97248.81
2023-02-19T11:48:58.387Z,97237.78
2023-02-19T11:51:24.674Z,97255.34
2023-02-19T11:53:50.973Z,97234.13
2023-02-19T11:56:17.266Z,97226.50
2023-02-19T11:58:43.547Z,97225.41
2023-02-19T12:01:10.214Z,97214.47
2023-02-19T12:03:36.691Z,97209.50
2023-02-19T12:06:02.983Z,97211.97
2023-02-19T12:08:29.338Z,97206.06
2023-02-19T12:10:55.654Z,97218.78
2023-02-19T12:13:21.929Z,97215.44
2023-02-19T12:15:48.232Z,97210.28
2023-02-19T12:18:14.517Z,97204.59
2023-02-19T12:20:40.809Z,97204.22
2023-02-19T12:23:07.165Z,97204.53
2023-02-19T12:25:34.763Z,97203.50
2023-02-19T12:28:01.231Z,97202.00
2023-02-19T12:30:27.629Z,97191.81
2023-02-19T12:32:53.940Z,97192.69
2023-02-19T12:35:20.217Z,97189.00
2023-02-19T12:37:46.538Z,97179.25
2023-02-19T12:40:12.849Z,97190.25
2023-02-19T12:42:39.129Z,97184.03
2023-02-19T12:45:05.436Z,97177.78
2023-02-19T12:47:31.721Z,97164.31
2023-02-19T12:49:58.030Z,97165.72
2023-02-19T12:52:24.318Z,97165.00
2023-02-19T12:54:50.606Z,97157.53
2023-02-19T12:57:16.899Z,97166.16
2023-02-19T12:59:43.213Z,97167.75
2023-02-19T13:02:09.540Z,97171.94
2023-02-19T13:04:35.835Z,97161.13
2023-02-19T13:07:02.169Z,97153.78
2023-02-19T13:09:28.468Z,97160.50
2023-02-19T13:11:54.791Z,97159.97
2023-02-19T13:14:21.126Z,97155.88
2023-02-19T13:16:47.457Z,97156.00
2023-02-19T13:19:13.793Z,97147.88
2023-02-19T13:21:40.100Z,97154.09
2023-02-19T13:24:06.373Z,97153.75
2023-02-19T13:26:32.655Z,97156.84
2023-02-19T13:28:58.955Z,97170.72
2023-02-19T13:31:25.369Z,97171.00
2023-02-19T13:33:51.674Z,97164.22
2023-02-19T13:36:17.973Z,97158.22
2023-02-19T13:38:44.251Z,97157.09
2023-02-19T13:41:10.832Z,97160.75
2023-02-19T13:43:37.330Z,97158.31
2023-02-19T13:46:03.646Z,97156.63
2023-02-19T13:48:29.953Z,97161.13
2023-02-19T13:50:56.241Z,97150.13
2023-02-19T13:53:22.510Z,97159.41
2023-02-19T13:55:48.781Z,97170.13
2023-02-19T13:58:15.074Z,97181.53
2023-02-19T14:00:41.363Z,97172.41
2023-02-19T14:03:07.657Z,97157.69
2023-02-19T14:05:33.954Z,97154.97
2023-02-19T14:08:00.229Z,97147.81
2023-02-19T14:10:26.499Z,97145.44
2023-02-19T14:12:52.835Z,97145.03
2023-02-19T14:15:19.115Z,97135.72
2023-02-19T14:17:45.389Z,97134.59
2023-02-19T14:20:11.768Z,97143.94
2023-02-19T14:22:38.058Z,97149.19
2023-02-19T14:25:04.346Z,97141.84
2023-02-19T14:27:30.631Z,97147.84
2023-02-19T14:29:56.916Z,97148.09
2023-02-19T14:32:23.413Z,97166.25
2023-02-19T14:34:50.248Z,97176.59
2023-02-19T14:37:16.513Z,97175.22
2023-02-19T14:39:42.813Z,97186.22
2023-02-19T14:42:09.122Z,97189.16
2023-02-19T14:44:35.398Z,97197.13
2023-02-19T14:47:01.700Z,97206.19
2023-02-19T14:49:28.052Z,97199.34
2023-02-19T14:51:54.367Z,97199.22
2023-02-19T14:54:20.683Z,97206.97
2023-02-19T14:56:47.033Z,97192.88
2023-02-19T14:59:13.313Z,97191.56
2023-02-19T15:01:39.746Z,97189.31
2023-02-19T15:04:06.086Z,97180.53
2023-02-19T15:06:32.364Z,97190.28
2023-02-19T15:08:58.644Z,97191.16
2023-02-19T15:11:24.949Z,97191.56
2023-02-19T15:13:51.230Z,97184.38
2023-02-19T15:16:17.550Z,97183.06
2023-02-19T15:18:43.916Z,97179.69
2023-02-19T15:21:10.503Z,97177.00
2023-02-19T15:23:36.896Z,97182.56
2023-02-19T15:26:03.202Z,97180.59
2023-02-19T15:28:29.502Z,97194.97
2023-02-19T15:30:55.814Z,97203.13
2023-02-19T15:33:22.132Z,97195.91
2023-02-19T15:35:48.423Z,97197.41
2023-02-19T15:38:14.765Z,97209.41
2023-02-19T15:40:41.060Z,97201.84
2023-02-19T15:43:07.484Z,97201.34
2023-02-19T15:45:33.765Z,97205.25
2023-02-19T15:48:00.099Z,97212.50
2023-02-19T15:50:26.386Z,97211.47
2023-02-19T15:52:52.689Z,97212.44
2023-02-19T15:55:18.994Z,97213.94
2023-02-19T15:57:45.272Z,97231.16
2023-02-19T16:00:11.605Z,97231.50
2023-02-19T16:02:37.927Z,97225.00
2023-02-19T16:05:04.231Z,97225.34
2023-02-19T16:07:31.113Z,97213.91
2023-02-19T16:09:57.423Z,97223.91
2023-02-19T16:12:23.693Z,97235.84
2023-02-19T16:14:49.989Z,97234.16
2023-02-19T16:17:16.366Z,97243.06
2023-02-19T16:19:42.646Z,97245.47
2023-02-19T16:22:08.925Z,97234.38
2023-02-19T16:24:35.265Z,97246.66
2023-02-19T16:27:01.556Z,97252.63
2023-02-19T16:29:27.848Z,97260.63
2023-02-19T16:31:54.180Z,97261.63
2023-02-19T16:34:20.506Z,97266.19
2023-02-19T16:36:46.790Z,97284.25
2023-02-19T16:39:13.092Z,97286.56
2023-02-19T16:41:39.372Z,97296.13
2023-02-19T16:44:05.645Z,97281.94
2023-02-19T16:46:31.943Z,97294.28
2023-02-19T16:48:58.221Z,97288.59
2023-02-19T16:51:24.666Z,97281.88
2023-02-19T16:53:50.974Z,97278.41
2023-02-19T16:56:17.263Z,97284.72
2023-02-19T16:58:43.636Z,97295.56
2023-02-19T17:01:10.207Z,97291.69
2023-02-19T17:03:36.700Z,97296.56
2023-02-19T17:06:03.017Z,97305.25
2023-02-19T17:08:29.300Z,97315.50
2023-02-19T17:10:56.285Z,97332.50
2023-02-19T17:13:22.626Z,97329.91
2023-02-19T17:15:48.991Z,97324.41
2023-02-19T17:18:15.268Z,97318.72
2023-02-19T17:20:41.562Z,97322.56
2023-02-19T17:23:07.861Z,97334.25
2023-02-19T17:25:34.133Z,97340.78
2023-02-19T17:28:00.419Z,97341.94
2023-02-19T17:30:26.812Z,97351.00
2023-02-19T17:32:53.132Z,97355.38
2023-02-19T17:35:19.419Z,97366.59
2023-02-19T17:37:45.705Z,97364.06
2023-02-19T17:40:12.823Z,97365.88
2023-02-19T17:42:40.160Z,97368.66
2023-02-19T17:45:06.436Z,97365.59
2023-02-19T17:47:32.706Z,97374.19
2023-02-19T17:49:58.987Z,97372.16
2023-02-19T17:52:25.335Z,97380.38
2023-02-19T17:54:51.613Z,97371.63
2023-02-19T17:57:17.891Z,97377.03
2023-02-19T17:59:44.169Z,97382.53
2023-02-19T18:02:10.459Z,97386.97
2023-02-19T18:04:37.966Z,97384.56
2023-02-19T18:07:05.294Z,97380.63
2023-02-19T18:09:31.575Z,97389.00
2023-02-19T18:11:57.856Z,97378.56
2023-02-19T18:14:24.155Z,97389.19
2023-02-19T18:16:50.833Z,97390.13
2023-02-19T18:19:17.233Z,97390.41
2023-02-19T18:21:43.532Z,97392.34
2023-02-19T18:24:09.805Z,97392.97
2023-02-19T18:26:36.087Z,97382.19
2023-02-19T18:29:02.392Z,97383.13
2023-02-19T18:31:28.713Z,97394.47
2023-02-19T18:33:55.018Z,97395.25
2023-02-19T18:36:21.364Z,97393.03
2023-02-19T18:38:47.643Z,97387.63
2023-02-19T18:41:14.352Z,97388.00
2023-02-19T18:43:40.930Z,97393.03
2023-02-19T18:46:07.232Z,97394.28
2023-02-19T18:48:33.520Z,97386.34
2023-02-19T18:50:59.822Z,97395.25
2023-02-19T18:53:26.102Z,97391.28
2023-02-19T18:55:52.375Z,97401.41
2023-02-19T18:58:18.701Z,97401.34
2023-02-19T19:00:44.999Z,97407.69
2023-02-19T19:03:11.292Z,97400.31
2023-02-19T19:05:37.583Z,97400.06
2023-02-19T19:08:03.864Z,97402.63
2023-02-19T19:10:30.145Z,97394.59
2023-02-19T19:12:56.454Z,97388.16
2023-02-19T19:15:22.741Z,97380.66
2023-02-19T19:17:49.029Z,97375.84
2023-02-19T19:20:15.334Z,97366.94
2023-02-19T19:22:41.629Z,97365.34
2023-02-19T19:25:07.918Z,97376.06
2023-02-19T19:27:34.225Z,97386.94
2023-02-19T19:30:00.557Z,97385.88
2023-02-19T19:32:26.862Z,97375.13
2023-02-19T19:34:53.181Z,97383.38
2023-02-19T19:37:19.483Z,97377.66
2023-02-19T19:39:45.766Z,97374.34
2023-02-19T19:42:12.101Z,97376.56
2023-02-19T19:44:38.421Z,97390.81
2023-02-19T19:47:04.707Z,97383.47
2023-02-19T19:49:31.002Z,97395.97
2023-02-19T19:51:58.619Z,97395.06
2023-02-19T19:54:24.984Z,97392.19
2023-02-19T19:56:51.293Z,97394.03
2023-02-19T19:59:17.584Z,97403.00
2023-02-19T20:01:43.908Z,97387.31
2023-02-19T20:04:10.250Z,97399.22
2023-02-19T20:06:36.525Z,97402.91
2023-02-19T20:09:02.834Z,97400.38
2023-02-19T20:11:29.144Z,97411.59
2023-02-19T20:13:55.439Z,97416.88
2023-02-19T20:16:21.727Z,97423.69
2023-02-19T20:18:48.027Z,97431.59
2023-02-19T20:21:14.679Z,97436.50
2023-02-19T20:23:41.088Z,97443.59
2023-02-19T20:26:07.382Z,97446.78
2023-02-19T20:28:33.798Z,97443.25
2023-02-19T20:31:00.130Z,97444.88
2023-02-19T20:33:26.458Z,97437.69
2023-02-19T20:35:52.737Z,97438.09
2023-02-19T20:38:19.031Z,97452.03
2023-02-19T20:40:45.349Z,97443.34
2023-02-19T20:43:11.632Z,97436.50
2023-02-19T20:45:37.916Z,97431.81
2023-02-19T20:48:04.263Z,97433.31
2023-02-19T20:50:30.578Z,97436.16
2023-02-19T20:52:56.861Z,97446.38
2023-02-19T20:55:25.997Z,97454.75
2023-02-19T20:57:52.299Z,97462.75
2023-02-19T21:00:18.583Z,97465.22
2023-02-19T21:02:44.932Z,97465.56
2023-02-19T21:05:11.278Z,97470.78
2023-02-19T21:07:37.561Z,97462.44
2023-02-19T21:10:03.875Z,97468.03
2023-02-19T21:12:30.168Z,97467.59
2023-02-19T21:14:56.440Z,97470.00
2023-02-19T21:17:22.735Z,97473.88
2023-02-19T21:19:50.281Z,97486.97
2023-02-19T21:22:16.622Z,97490.94
2023-02-19T21:24:42.939Z,97486.66
2023-02-19T21:27:09.221Z,97489.91
2023-02-19T21:29:35.519Z,97487.47
2023-02-19T21:32:01.944Z,97487.88
2023-02-19T21:34:28.353Z,97497.84
2023-02-19T21:36:54.638Z,97495.88
2023-02-19T21:39:20.943Z,97497.06
2023-02-19T21:41:47.220Z,97501.81
2023-02-19T21:44:13.497Z,97498.63
2023-02-19T21:46:39.800Z,97501.00
2023-02-19T21:49:06.081Z,97497.84
2023-02-19T21:51:32.353Z,97504.56
2023-02-19T21:53:59.455Z,97499.03
2023-02-19T21:56:25.739Z,97503.03
2023-02-19T21:58:53.104Z,97499.38
2023-02-19T22:01:19.382Z,97487.06
2023-02-19T22:03:45.669Z,97494.66
2023-02-19T22:06:12.328Z,97495.84
2023-02-19T22:08:38.841Z,97499.44
2023-02-19T22:11:05.123Z,97500.63
2023-02-19T22:13:31.407Z,97503.38
2023-02-19T22:15:57.719Z,97502.59
2023-02-19T22:18:23.998Z,97511.78
2023-02-19T22:20:50.276Z,97517.69
2023-02-19T22:23:16.585Z,97516.13
2023-02-19T22:25:42.866Z,97511.53
2023-02-19T22:28:09.149Z,97513.19
2023-02-19T22:30:35.474Z,97515.63
2023-02-19T22:33:01.810Z,97511.16
2023-02-19T22:35:28.085Z,97510.41
2023-02-19T22:37:54.385Z,97515.50
2023-02-19T22:40:20.652Z,97507.22
2023-02-19T22:42:46.929Z,97517.75
2023-02-19T22:45:13.226Z,97509.16
2023-02-19T22:47:39.517Z,97507.72
2023-02-19T22:50:05.815Z,97504.47
2023-02-19T22:52:32.104Z,97497.66
2023-02-19T22:54:58.385Z,97500.00
2023-02-19T22:57:24.801Z,97495.25
2023-02-19T22:59:51.141Z,97493.69
2023-02-19T23:02:17.439Z,97489.06
2023-02-19T23:04:43.723Z,97487.31
2023-02-19T23:07:10.094Z,97484.25
2023-02-19T23:09:36.436Z,97489.41
2023-02-19T23:12:02.730Z,97493.19
2023-02-19T23:14:29.052Z,97488.75
2023-02-19T23:16:55.410Z,97481.06
2023-02-19T23:19:21.740Z,97484.31
2023-02-19T23:21:48.422Z,97484.81
2023-02-19T23:24:14.702Z,97481.84
2023-02-19T23:26:40.977Z,97490.59
2023-02-19T23:29:07.268Z,97492.28
2023-02-19T23:31:33.593Z,97493.44
2023-02-19T23:33:59.911Z,97493.22
2023-02-19T23:36:26.207Z,97494.38
2023-02-19T23:38:52.490Z,97489.97
2023-02-19T23:41:18.863Z,97490.09
2023-02-19T23:43:45.151Z,97490.81
2023-02-19T23:46:11.804Z,97491.69
2023-02-19T23:48:38.441Z,97483.22
2023-02-19T23:51:04.742Z,97487.56
2023-02-19T23:53:31.036Z,97487.97
2023-02-19T23:55:57.317Z,97492.38
2023-02-19T23:58:23.612Z,97479.19
